Time;durP1;ratioP1;P1;durP2;ratioP2;P2;SDS_P1;SDS_P2;PMS_P1;PMS_P2;Temp;Humidity;BMP_temperature;BMP_pressure;BME280_temperature;BME280_humidity;BME280_pressure;Samples;Min_cycle;Max_cycle;Signal;HPM_P1;HPM_P2
2023/06/04 00:01:48;;;;;;;;;;;;;;;14.50;58.45;102162.22;5090817;28;20033;-36
2023/06/04 00:04:13;;;;;;;2.78;1.20;;;;;;;14.33;60.20;102148.31;5089904;28;20040;-36
2023/06/04 00:06:39;;;;;;;;;;;;;;;14.44;59.26;102153.03;5090578;28;20028;-36
2023/06/04 00:09:04;;;;;;;3.10;1.25;;;;;;;14.34;60.60;102145.38;5089864;28;19922;-36
2023/06/04 00:11:30;;;;;;;;;;;;;;;14.43;58.68;102149.47;5081874;28;20061;-36
2023/06/04 00:13:55;;;;;;;3.38;1.10;;;;;;;14.29;60.82;102128.88;5076531;28;19912;-37
2023/06/04 00:16:21;;;;;;;;;;;;;;;14.37;58.71;102144.09;5077279;28;20039;-37
2023/06/04 00:18:46;;;;;;;2.23;1.10;;;;;;;14.22;60.79;102143.63;5076110;28;19916;-37
2023/06/04 00:21:11;;;;;;;2.67;1.30;;;;;;;14.10;62.00;102138.06;5076197;28;20250;-37
2023/06/04 00:23:37;;;;;;;3.08;1.10;;;;;;;14.06;61.98;102135.00;5076138;28;20286;-37
2023/06/04 00:26:03;;;;;;;2.35;1.20;;;;;;;14.13;62.12;102138.47;5076409;28;20040;-37
2023/06/04 00:28:28;;;;;;;4.32;0.90;;;;;;;14.11;62.46;102140.59;5076867;28;20073;-37
2023/06/04 00:30:53;;;;;;;2.20;0.97;;;;;;;14.07;62.14;102136.66;5076342;28;20462;-37
2023/06/04 00:33:19;;;;;;;3.20;1.17;;;;;;;14.09;62.59;102136.41;5075996;28;20382;-37
2023/06/04 00:35:44;;;;;;;;;;;;;;;14.17;61.49;102134.25;5076633;28;20028;-36
2023/06/04 00:38:10;;;;;;;3.70;1.20;;;;;;;14.03;62.81;102143.56;5076122;28;19908;-36
2023/06/04 00:40:35;;;;;;;;;;;;;;;14.13;60.32;102138.47;5076189;28;20032;-36
2023/06/04 00:43:00;;;;;;;2.03;0.80;;;;;;;13.84;63.83;102134.53;5075620;28;19912;-37
2023/06/04 00:45:26;;;;;;;3.43;1.00;;;;;;;13.94;63.85;102135.91;5075821;28;20039;-37
2023/06/04 00:47:53;;;;;;;1.95;1.05;;;;;;;13.89;63.82;102128.44;5075687;28;20281;-37
2023/06/04 00:50:20;;;;;;;2.33;1.17;;;;;;;13.72;64.51;102121.88;5075628;28;20050;-34
2023/06/04 00:52:46;;;;;;;2.83;1.38;;;;;;;13.75;64.42;102133.13;5076075;28;20385;-36
2023/06/04 00:55:12;;;;;;;;;;;;;;;13.91;61.63;102138.03;5076052;28;20020;-35
2023/06/04 00:57:37;;;;;;;2.38;1.02;;;;;;;13.88;63.99;102134.94;5075496;28;19928;-36
2023/06/04 01:00:05;;;;;;;2.47;1.20;;;;;;;13.78;64.35;102129.97;5075499;28;20098;-36
2023/06/04 01:02:31;;;;;;;4.53;1.20;;;;;;;13.74;64.77;102128.75;5075707;28;20055;-36
2023/06/04 01:05:29;;;;;;;2.83;1.20;;;;;;;13.65;64.86;102139.06;5075317;28;20021;-36
2023/06/04 01:07:56;;;;;;;1.83;0.90;;;;;;;13.77;64.67;102143.81;5076129;28;20036;-36
2023/06/04 01:10:22;;;;;;;2.03;1.10;;;;;;;13.78;64.89;102140.03;5075488;28;20039;-36
2023/06/04 01:12:47;;;;;;;;;;;;;;;13.86;62.33;102142.47;5075852;28;20369;-36
2023/06/04 01:15:12;;;;;;;1.80;1.20;;;;;;;13.60;64.99;102136.16;5075967;28;19912;-36
2023/06/04 01:17:46;;;;;;;2.63;1.33;;;;;;;13.58;64.97;102151.88;5075366;28;20259;-36
2023/06/04 01:20:12;;;;;;;3.03;1.63;;;;;;;13.58;65.57;102140.16;5074978;28;20035;-36
2023/06/04 01:22:54;;;;;;;3.30;1.13;;;;;;;13.61;65.72;102139.72;5073958;28;20586;-36
2023/06/04 01:25:27;;;;;;;2.00;1.00;;;;;;;13.51;65.63;102142.91;5075531;28;20418;-36
2023/06/04 01:27:56;;;;;;;1.70;1.05;;;;;;;13.52;66.12;102141.88;5075179;28;20433;-36
2023/06/04 01:30:28;;;;;;;3.67;1.30;;;;;;;13.37;66.41;102125.03;5075594;28;20028;-36
2023/06/04 01:32:54;;;;;;;1.45;1.05;;;;;;;13.45;65.92;102134.81;5075390;28;20029;-36
2023/06/04 01:35:20;;;;;;;3.30;1.65;;;;;;;13.43;66.54;102135.03;5075222;28;20029;-36
2023/06/04 01:37:46;;;;;;;1.73;1.02;;;;;;;13.39;66.41;102141.97;5075489;28;20032;-36
2023/06/04 01:40:11;;;;;;;;;;;;;;;13.59;63.37;102139.94;5074956;28;20078;-36
2023/06/04 01:42:36;;;;;;;4.13;1.20;;;;;;;13.43;66.55;102139.66;5075066;28;19912;-36
2023/06/04 01:45:02;;;;;;;4.22;1.02;;;;;;;13.23;66.68;102128.91;5074606;28;20024;-36
2023/06/04 01:47:27;;;;;;;;;;;;;;;13.43;64.24;102142.38;5076070;28;20028;-36
2023/06/04 01:49:53;;;;;;;2.80;1.00;;;;;;;13.17;67.71;102146.84;5074725;28;20371;-36
2023/06/04 01:52:20;;;;;;;;;;;;;;;13.36;64.14;102134.22;5075107;28;20473;-36
2023/06/04 01:54:48;;;;;;;2.40;1.10;;;;;;;13.05;67.21;102118.72;5074023;28;20402;-37
2023/06/04 01:57:14;;;;;;;2.63;1.25;;;;;;;13.12;67.75;102138.50;5074610;28;20377;-37
2023/06/04 01:59:41;;;;;;;2.58;1.33;;;;;;;13.07;67.29;102139.16;5074089;28;20044;-37
2023/06/04 02:02:06;;;;;;;3.83;1.30;;;;;;;13.01;68.40;102133.75;5074823;28;20084;-36
2023/06/04 02:04:32;;;;;;;3.20;1.30;;;;;;;13.01;68.28;102137.31;5074138;28;20064;-36
2023/06/04 02:06:59;;;;;;;;;;;;;;;13.14;65.53;102141.84;5075109;28;20020;-36
2023/06/04 02:09:25;;;;;;;4.97;1.30;;;;;;;12.91;68.34;102138.81;5074005;28;19967;-37
2023/06/04 02:11:51;;;;;;;3.40;1.08;;;;;;;12.81;69.15;102134.69;5073738;28;20029;-36
2023/06/04 02:14:16;;;;;;;2.67;1.30;;;;;;;12.76;69.56;102130.94;5074741;28;20044;-36
2023/06/04 02:16:41;;;;;;;5.10;1.52;;;;;;;12.77;69.29;102128.00;5074308;28;20086;-36
2023/06/04 02:19:07;;;;;;;3.93;2.03;;;;;;;12.81;68.80;102133.84;5073830;28;20020;-36
2023/06/04 02:21:33;;;;;;;3.22;1.20;;;;;;;12.75;69.38;102135.53;5074196;28;20670;-36
2023/06/04 02:23:58;;;;;;;1.92;1.10;;;;;;;12.66;69.67;102130.56;5073887;28;20060;-36
2023/06/04 02:26:24;;;;;;;1.70;1.20;;;;;;;12.70;70.06;102143.50;5073743;28;20175;-36
2023/06/04 02:28:50;;;;;;;2.22;1.50;;;;;;;12.79;69.86;102130.53;5074324;28;20024;-36
2023/06/04 02:31:15;;;;;;;4.22;1.27;;;;;;;12.71;69.65;102138.91;5074130;28;20028;-36
2023/06/04 02:33:41;;;;;;;2.33;1.20;;;;;;;12.60;70.22;102137.69;5073525;28;20032;-36
2023/06/04 02:36:08;;;;;;;2.28;1.20;;;;;;;12.54;70.39;102133.94;5073799;28;20548;-36
2023/06/04 02:38:34;;;;;;;2.47;1.15;;;;;;;12.46;71.01;102134.16;5073693;28;20016;-35
2023/06/04 02:41:00;;;;;;;1.80;1.10;;;;;;;12.49;70.70;102135.59;5074168;28;20519;-35
2023/06/04 02:43:25;;;;;;;4.28;1.30;;;;;;;12.44;70.65;102144.38;5074489;28;20032;-36
2023/06/04 02:45:50;;;;;;;3.80;1.20;;;;;;;12.37;71.40;102130.00;5073684;28;20052;-36
2023/06/04 02:48:16;;;;;;;3.58;1.40;;;;;;;12.41;70.45;102139.38;5073266;28;20039;-36
2023/06/04 02:50:42;;;;;;;1.70;1.20;;;;;;;12.42;70.98;102141.03;5073603;28;20090;-36
2023/06/04 02:53:07;;;;;;;;;;;;;;;12.56;68.54;102145.41;5073950;28;20025;-36
2023/06/04 02:55:33;;;;;;;5.22;1.33;;;;;;;12.36;70.96;102147.31;5073531;28;20328;-36
2023/06/04 02:57:59;;;;;;;2.10;1.00;;;;;;;12.20;71.32;102136.91;5073481;28;20028;-36
2023/06/04 03:00:25;;;;;;;2.42;1.33;;;;;;;12.29;71.05;102135.63;5074120;28;20077;-36
2023/06/04 03:02:50;;;;;;;1.90;1.20;;;;;;;12.22;71.28;102146.50;5074235;28;20047;-36
2023/06/04 03:05:17;;;;;;;3.00;1.30;;;;;;;12.29;71.56;102130.22;5073820;28;20469;-36
2023/06/04 03:07:44;;;;;;;2.05;1.23;;;;;;;12.14;72.22;102141.28;5073109;28;20107;-36
2023/06/04 03:10:11;;;;;;;2.65;1.25;;;;;;;12.19;72.05;102135.22;5073031;28;20036;-36
2023/06/04 03:12:36;;;;;;;3.17;1.33;;;;;;;12.18;72.18;102149.84;5074171;28;20039;-36
2023/06/04 03:15:03;;;;;;;4.25;1.23;;;;;;;12.14;72.11;102145.88;5073057;28;20392;-36
2023/06/04 03:17:28;;;;;;;2.55;1.30;;;;;;;11.96;72.61;102144.66;5073018;28;20043;-36
2023/06/04 03:19:55;;;;;;;2.75;1.40;;;;;;;11.99;73.38;102133.38;5073268;28;20036;-36
2023/06/04 03:22:21;;;;;;;2.45;1.33;;;;;;;12.00;72.71;102140.44;5074131;28;20060;-36
2023/06/04 03:24:47;;;;;;;4.00;1.10;;;;;;;11.91;73.09;102139.03;5073201;28;20358;-36
2023/06/04 03:27:12;;;;;;;2.50;1.35;;;;;;;11.84;74.18;102138.16;5074049;28;20445;-36
2023/06/04 03:29:37;;;;;;;2.40;1.47;;;;;;;11.85;73.24;102137.13;5073153;28;20029;-36
2023/06/04 03:32:03;;;;;;;3.92;1.70;;;;;;;11.85;73.64;102139.81;5073556;28;20025;-36
2023/06/04 03:34:31;;;;;;;;;;;;;;;12.01;70.69;102138.59;5073494;28;20023;-36
2023/06/04 03:36:56;;;;;;;;;;;;;;;12.00;69.96;102136.91;5073826;28;20387;-36
2023/06/04 03:39:22;;;;;;;3.10;1.33;;;;;;;11.79;73.23;102140.63;5073077;28;19913;-36
2023/06/04 03:41:48;;;;;;;3.22;1.30;;;;;;;11.77;73.81;102140.03;5072861;28;20035;-36
2023/06/04 03:44:14;;;;;;;4.00;1.40;;;;;;;11.73;73.56;102147.72;5073342;28;20031;-36
2023/06/04 03:46:40;;;;;;;4.40;1.67;;;;;;;11.58;74.28;102138.94;5075070;28;20052;-36
2023/06/04 03:49:05;;;;;;;2.42;1.33;;;;;;;11.68;74.12;102143.97;5076807;28;20506;-36
2023/06/04 03:51:30;;;;;;;2.37;1.30;;;;;;;11.62;74.34;102147.50;5076608;28;20111;-36
2023/06/04 03:53:58;;;;;;;3.00;1.38;;;;;;;11.63;75.39;102149.19;5076428;28;20384;-36
2023/06/04 03:56:23;;;;;;;1.33;1.10;;;;;;;11.50;74.43;102125.59;5077203;28;20032;-36
2023/06/04 03:58:49;;;;;;;2.57;1.50;;;;;;;11.62;75.46;102131.25;5077078;28;20064;-36
2023/06/04 04:01:15;;;;;;;;;;;;;;;11.82;72.23;102140.25;5077356;28;20291;-36
2023/06/04 04:03:42;;;;;;;5.57;1.23;;;;;;;11.64;74.78;102145.41;5076481;28;19919;-36
2023/06/04 04:06:10;;;;;;;2.53;1.20;;;;;;;11.64;75.10;102140.00;5076415;28;20030;-36
2023/06/04 04:08:35;;;;;;;3.90;1.42;;;;;;;11.68;75.29;102147.50;5076387;28;20099;-36
2023/06/04 04:11:01;;;;;;;3.30;1.40;;;;;;;11.68;75.16;102144.81;5076455;28;20384;-36
2023/06/04 04:13:26;;;;;;;2.85;1.65;;;;;;;11.53;74.51;102139.56;5076307;28;20036;-36
2023/06/04 04:15:52;;;;;;;3.15;1.20;;;;;;;11.54;75.06;102134.97;5077146;28;20121;-36
2023/06/04 04:18:21;;;;;;;3.70;1.42;;;;;;;11.61;75.32;102152.06;5076500;28;20017;-36
2023/06/04 04:20:47;;;;;;;3.25;1.33;;;;;;;11.66;72.93;102135.19;5076206;28;20051;-36
2023/06/04 04:23:13;;;;;;;3.70;1.50;;;;;;;11.74;75.00;102143.97;5076975;28;20028;-36
2023/06/04 04:25:39;;;;;;;2.08;1.48;;;;;;;11.78;74.49;102149.81;5076738;28;20076;-36
2023/06/04 04:28:08;;;;;;;5.55;1.45;;;;;;;11.80;74.93;102151.25;5076614;28;20063;-36
2023/06/04 04:30:36;;;;;;;2.67;1.70;;;;;;;11.85;74.62;102150.66;5075750;28;20035;-36
2023/06/04 04:33:04;;;;;;;3.50;1.33;;;;;;;11.77;73.97;102154.41;5075938;28;20060;-36
2023/06/04 04:35:32;;;;;;;4.63;1.40;;;;;;;11.88;75.07;102149.44;5075921;28;20115;-36
2023/06/04 04:37:58;;;;;;;2.25;1.33;;;;;;;11.95;74.68;102145.66;5075827;28;20020;-37
2023/06/04 04:40:24;;;;;;;;;;;;;;;12.20;72.41;102151.31;5076033;28;20048;-37
2023/06/04 04:42:49;;;;;;;4.03;1.30;;;;;;;12.21;73.71;102150.25;5076072;28;20357;-36
2023/06/04 04:45:14;;;;;;;8.83;2.10;;;;;;;12.24;72.13;102144.41;5075786;28;20457;-36
2023/06/04 04:47:40;;;;;;;2.27;1.57;;;;;;;12.29;72.07;102144.59;5075473;28;20267;-36
2023/06/04 04:50:05;;;;;;;1.93;1.30;;;;;;;12.26;72.79;102149.63;5075733;28;20037;-36
2023/06/04 04:52:31;;;;;;;1.98;1.40;;;;;;;12.47;72.68;102143.97;5076485;28;20033;-37
2023/06/04 04:54:57;;;;;;;3.25;1.40;;;;;;;12.49;72.09;102158.16;5075605;28;20024;-36
2023/06/04 04:57:26;;;;;;;6.35;1.48;;;;;;;12.62;72.20;102146.44;5075773;28;20477;-36
2023/06/04 04:59:51;;;;;;;2.60;1.40;;;;;;;12.76;71.43;102153.50;5075458;28;20056;-36
2023/06/04 05:02:17;;;;;;;2.08;1.50;;;;;;;12.77;72.66;102155.16;5075458;28;20021;-36
2023/06/04 05:04:42;;;;;;;4.05;1.60;;;;;;;12.71;72.09;102133.47;5075366;28;20028;-37
2023/06/04 05:07:07;;;;;;;4.28;1.90;;;;;;;12.88;71.20;102154.50;5075691;28;20039;-36
2023/06/04 05:09:33;;;;;;;6.65;1.80;;;;;;;12.92;71.17;102165.75;5075317;28;20032;-36
2023/06/04 05:11:58;;;;;;;6.10;1.70;;;;;;;13.05;70.37;102162.16;5075580;28;20498;-36
2023/06/04 05:14:23;;;;;;;5.07;1.52;;;;;;;13.06;70.77;102156.50;5075259;28;20445;-36
2023/06/04 05:16:49;;;;;;;7.75;1.98;;;;;;;13.02;69.87;102146.28;5075232;28;20031;-36
2023/06/04 05:19:16;;;;;;;7.25;1.60;;;;;;;13.15;70.27;102157.94;5075813;28;20373;-37
2023/06/04 05:21:43;;;;;;;3.83;1.63;;;;;;;13.16;70.51;102153.31;5075338;28;20416;-36
2023/06/04 05:24:09;;;;;;;7.65;2.00;;;;;;;13.13;70.13;102151.06;5075003;28;20029;-36
2023/06/04 05:26:34;;;;;;;;;;;;;;;13.39;69.39;102152.81;5075378;28;20032;-36
2023/06/04 05:29:00;;;;;;;4.47;1.58;;;;;;;13.24;70.00;102161.25;5074563;28;20053;-36
2023/06/04 05:31:29;;;;;;;4.57;1.50;;;;;;;13.25;70.02;102162.09;5075118;28;20029;-36
2023/06/04 05:33:54;;;;;;;4.50;1.67;;;;;;;13.20;69.51;102161.88;5074728;28;20036;-36
2023/06/04 05:36:19;;;;;;;;;;;;;;;13.21;69.76;102160.81;5075505;28;20024;-36
2023/06/04 05:38:45;;;;;;;3.75;1.73;;;;;;;13.22;70.40;102159.81;5075266;28;20383;-35
2023/06/04 05:41:11;;;;;;;3.13;1.65;;;;;;;13.38;70.64;102157.44;5074984;28;20162;-36
2023/06/04 05:43:37;;;;;;;4.75;1.80;;;;;;;13.44;70.09;102155.72;5074281;28;20031;-36
2023/06/04 05:46:02;;;;;;;;;;;;;;;13.74;69.65;102161.38;5075866;28;20021;-36
2023/06/04 05:48:27;;;;;;;4.60;1.60;;;;;;;13.64;68.77;102161.84;5074790;28;19947;-36
2023/06/04 05:50:53;;;;;;;3.30;1.53;;;;;;;13.76;68.61;102155.72;5074844;28;20649;-36
2023/06/04 05:53:18;;;;;;;2.77;1.70;;;;;;;13.74;68.58;102164.09;5074440;28;20270;-36
2023/06/04 05:55:43;;;;;;;4.13;1.60;;;;;;;13.85;68.11;102171.53;5074972;28;20358;-36
2023/06/04 05:58:09;;;;;;;3.40;1.40;;;;;;;13.86;66.87;102172.41;5074367;28;20028;-36
2023/06/04 06:00:34;;;;;;;3.13;1.70;;;;;;;14.05;67.54;102163.22;5074232;28;20059;-36
2023/06/04 06:03:01;;;;;;;4.80;2.10;;;;;;;14.12;66.68;102161.28;5074014;28;20349;-36
2023/06/04 06:05:26;;;;;;;4.85;1.48;;;;;;;14.15;65.67;102160.00;5074179;28;20024;-36
2023/06/04 06:07:51;;;;;;;;;;;;;;;14.43;66.14;102164.97;5074832;28;20025;-36
2023/06/04 06:10:17;;;;;;;1.67;1.37;;;;;;;14.37;64.99;102160.44;5073401;28;19920;-36
2023/06/04 06:12:42;;;;;;;3.83;1.60;;;;;;;14.42;65.44;102152.44;5074122;28;20259;-36
2023/06/04 06:15:08;;;;;;;3.13;1.45;;;;;;;14.57;63.91;102162.97;5074043;28;20101;-36
2023/06/04 06:17:33;;;;;;;;;;;;;;;14.74;64.72;102171.38;5074424;28;20021;-36
2023/06/04 06:19:59;;;;;;;3.15;1.70;;;;;;;14.65;63.58;102168.97;5074715;28;19919;-36
2023/06/04 06:22:25;;;;;;;;;;;;;;;14.83;64.19;102178.19;5074655;28;20478;-36
2023/06/04 06:24:50;;;;;;;2.78;1.50;;;;;;;14.88;63.58;102178.34;5073653;28;19977;-36
2023/06/04 06:27:17;;;;;;;;;;;;;;;15.07;64.28;102174.53;5073983;28;20111;-36
2023/06/04 06:29:43;;;;;;;1.90;1.50;;;;;;;15.10;64.05;102168.66;5074317;28;20030;-36
2023/06/04 06:32:08;;;;;;;;;;;;;;;15.31;63.94;102167.31;5074207;28;20111;-36
2023/06/04 06:34:34;;;;;;;2.45;1.33;;;;;;;15.43;63.98;102176.41;5073753;28;19912;-36
2023/06/04 06:36:59;;;;;;;;;;;;;;;15.59;62.42;102176.81;5075035;28;20051;-36
2023/06/04 06:39:25;;;;;;;2.25;1.30;;;;;;;15.46;61.40;102180.53;5073899;28;19920;-36
2023/06/04 06:41:50;;;;;;;;;;;;;;;15.64;62.04;102176.97;5073912;28;20032;-37
2023/06/04 06:44:15;;;;;;;4.25;1.60;;;;;;;15.53;62.30;102159.47;5074142;28;19908;-36
2023/06/04 06:46:41;;;;;;;;;;;;;;;15.83;62.34;102185.91;5074635;28;20099;-37
2023/06/04 06:49:06;;;;;;;2.28;1.40;;;;;;;15.55;59.35;102179.16;5073550;28;19908;-37
2023/06/04 06:51:31;;;;;;;;;;;;;;;15.80;59.93;102180.91;5074649;28;20070;-36
2023/06/04 06:53:56;;;;;;;4.10;1.67;;;;;;;15.66;59.60;102181.13;5073251;28;19931;-37
2023/06/04 06:56:22;;;;;;;2.88;1.42;;;;;;;15.61;58.13;102182.84;5073883;28;20259;-36
2023/06/04 06:58:47;;;;;;;;;;;;;;;15.75;58.80;102183.50;5074148;28;20028;-36
2023/06/04 07:01:13;;;;;;;4.53;1.92;;;;;;;15.76;59.35;102174.25;5074158;28;20256;-36
2023/06/04 07:03:39;;;;;;;;;;;;;;;15.94;59.52;102185.09;5073878;28;20028;-36
2023/06/04 07:06:05;;;;;;;3.47;1.60;;;;;;;15.94;58.70;102185.09;5073234;28;19920;-36
2023/06/04 07:08:31;;;;;;;3.33;1.60;;;;;;;15.96;59.13;102185.72;5073062;28;20036;-37
2023/06/04 07:10:56;;;;;;;;;;;;;;;16.19;59.22;102191.19;5074398;28;20028;-36
2023/06/04 07:13:22;;;;;;;2.63;1.60;;;;;;;16.12;56.99;102176.84;5073339;28;20353;-37
2023/06/04 07:15:47;;;;;;;;;;;;;;;16.37;58.26;102194.88;5073814;28;20441;-36
2023/06/04 07:18:12;;;;;;;4.13;1.85;;;;;;;16.44;58.18;102187.41;5073606;28;19919;-36
2023/06/04 07:20:37;;;;;;;;;;;;;;;16.56;57.61;102198.34;5074447;28;20110;-36
2023/06/04 07:23:03;;;;;;;3.83;1.40;;;;;;;16.39;55.90;102185.38;5077556;28;20404;-36
2023/06/04 07:25:28;;;;;;;;;;;;;;;16.61;56.81;102193.81;5078277;28;20259;-36
2023/06/04 07:27:57;;;;;;;2.67;1.60;;;;;;;16.62;55.63;102190.00;5076958;28;20280;-37
2023/06/04 07:30:23;;;;;;;2.83;1.52;;;;;;;16.63;55.74;102191.66;5077724;28;20592;-36
2023/06/04 07:32:48;;;;;;;;;;;;;;;16.78;55.56;102196.66;5077579;28;20094;-37
2023/06/04 07:35:14;;;;;;;2.33;1.30;;;;;;;16.73;54.44;102182.91;5076830;28;19916;-36
2023/06/04 07:37:39;;;;;;;;;;;;;;;16.96;55.64;102192.97;5077500;28;20033;-37
2023/06/04 07:40:05;;;;;;;2.60;1.50;;;;;;;16.96;52.91;102188.31;5077249;28;19919;-37
2023/06/04 07:42:30;;;;;;;;;;;;;;;17.17;54.73;102188.75;5077017;28;20024;-37
2023/06/04 07:44:55;;;;;;;5.83;1.50;;;;;;;17.11;52.19;102185.06;5076690;28;19915;-37
2023/06/04 07:47:22;;;;;;;;;;;;;;;17.33;52.31;102192.63;5077895;28;20298;-38
2023/06/04 07:49:47;;;;;;;3.33;1.60;;;;;;;17.29;52.58;102189.56;5076738;28;19935;-37
2023/06/04 07:52:13;;;;;;;;;;;;;;;17.44;52.37;102199.94;5076793;28;20028;-37
2023/06/04 07:54:41;;;;;;;3.38;1.40;;;;;;;17.42;50.80;102191.16;5076639;28;20006;-37
2023/06/04 07:57:06;;;;;;;2.47;1.38;;;;;;;17.52;50.97;102191.38;5076602;28;20028;-37
2023/06/04 07:59:31;;;;;;;;;;;;;;;17.67;52.79;102199.84;5076784;28;20179;-37
2023/06/04 08:01:57;;;;;;;3.13;1.50;;;;;;;17.72;51.65;102199.94;5076952;28;19920;-37
2023/06/04 08:04:22;;;;;;;;;;;;;;;17.90;51.64;102184.41;5076910;28;20281;-37
2023/06/04 08:06:47;;;;;;;3.63;1.20;;;;;;;18.01;49.61;102192.53;5076288;28;19912;-36
2023/06/04 08:09:13;;;;;;;;;;;;;;;18.16;50.95;102191.97;5077673;28;20271;-37
2023/06/04 08:11:40;;;;;;;5.18;1.40;;;;;;;18.19;51.27;102176.94;5076979;28;19912;-36
2023/06/04 08:14:05;;;;;;;2.10;1.20;;;;;;;18.39;47.92;102192.84;5076344;28;20380;-36
2023/06/04 08:16:32;;;;;;;1.70;1.10;;;;;;;18.44;47.02;102192.94;5076598;28;20031;-36
2023/06/04 08:18:57;;;;;;;2.75;1.33;;;;;;;18.56;46.40;102190.94;5076177;28;20506;-37
2023/06/04 08:21:27;;;;;;;1.83;1.13;;;;;;;18.63;46.19;102177.03;5076566;28;20046;-36
2023/06/04 08:23:52;;;;;;;4.40;1.70;;;;;;;18.81;47.15;102200.63;5076161;28;20366;-37
2023/06/04 08:26:19;;;;;;;3.28;1.33;;;;;;;18.85;44.30;102201.78;5076415;28;20095;-36
2023/06/04 08:28:48;;;;;;;2.83;1.13;;;;;;;18.84;44.27;102197.34;5076036;28;20024;-37
2023/06/04 08:31:13;;;;;;;2.92;1.40;;;;;;;18.90;44.71;102197.19;5076296;28;20074;-37
2023/06/04 08:33:38;;;;;;;4.95;1.17;;;;;;;19.11;45.37;102184.56;5075890;28;20033;-37
2023/06/04 08:36:04;;;;;;;;;;;;;;;19.38;44.92;102200.25;5076467;28;20039;-37
2023/06/04 08:38:30;;;;;;;2.45;1.20;;;;;;;19.37;44.08;102196.66;5075611;28;19912;-37
2023/06/04 08:41:02;;;;;;;3.15;1.10;;;;;;;19.41;41.35;102199.72;5075797;28;20467;-37
2023/06/04 08:43:29;;;;;;;2.00;1.00;;;;;;;19.56;41.58;102197.94;5075863;28;20057;-37
2023/06/04 08:45:59;;;;;;;2.58;1.23;;;;;;;19.73;41.37;102189.66;5076290;28;20060;-37
2023/06/04 08:48:26;;;;;;;1.70;1.10;;;;;;;20.00;41.42;102186.03;5074632;28;20029;-37
2023/06/04 08:50:53;;;;;;;3.40;1.40;;;;;;;20.11;41.08;102198.78;5074453;28;20089;-37
2023/06/04 08:53:18;;;;;;;4.18;1.20;;;;;;;20.15;39.97;102188.09;5075289;28;20036;-37
2023/06/04 08:55:45;;;;;;;3.13;0.90;;;;;;;20.16;35.68;102193.34;5075653;28;20036;-37
2023/06/04 08:58:12;;;;;;;1.58;0.80;;;;;;;20.15;35.59;102199.06;5075375;28;20054;-37
2023/06/04 09:00:38;;;;;;;4.28;1.00;;;;;;;20.30;38.32;102194.53;5075523;28;20048;-37
2023/06/04 09:03:03;;;;;;;1.90;1.00;;;;;;;20.40;38.18;102201.19;5074872;28;20112;-37
2023/06/04 09:05:29;;;;;;;3.30;1.05;;;;;;;20.35;34.02;102204.75;5075743;28;20040;-37
2023/06/04 09:08:01;;;;;;;1.63;0.80;;;;;;;20.63;36.93;102189.81;5075313;28;20028;-37
2023/06/04 09:10:29;;;;;;;1.13;0.63;;;;;;;20.85;36.63;102197.09;5075081;28;20435;-37
2023/06/04 09:12:57;;;;;;;2.88;0.90;;;;;;;20.83;35.78;102195.44;5074285;28;20397;-37
2023/06/04 09:15:23;;;;;;;2.10;0.90;;;;;;;21.21;36.21;102198.91;5074872;28;20081;-37
2023/06/04 09:17:48;;;;;;;1.75;0.80;;;;;;;21.04;35.62;102195.53;5075147;28;20115;-37
2023/06/04 09:20:24;;;;;;;2.20;0.90;;;;;;;21.29;36.53;102192.06;5075237;28;20484;-37
2023/06/04 09:22:49;;;;;;;2.03;0.80;;;;;;;21.31;35.28;102196.22;5074938;28;20024;-37
2023/06/04 09:25:26;;;;;;;1.45;0.63;;;;;;;21.22;33.05;102200.53;5074960;28;20031;-37
2023/06/04 09:27:54;;;;;;;2.70;0.80;;;;;;;21.59;34.03;102192.16;5075492;28;20029;-36
2023/06/04 09:30:19;;;;;;;2.00;0.70;;;;;;;21.48;32.21;102195.16;5075385;28;20028;-37
2023/06/04 09:32:45;;;;;;;0.85;0.60;;;;;;;21.41;31.68;102197.34;5073892;28;20028;-37
2023/06/04 09:35:18;;;;;;;2.25;0.77;;;;;;;21.47;32.40;102199.84;5075272;28;20024;-37
2023/06/04 09:37:55;;;;;;;1.00;0.60;;;;;;;21.75;32.70;102200.44;5073917;28;20139;-37
2023/06/04 09:40:21;;;;;;;2.10;0.95;;;;;;;21.69;30.25;102204.28;5073354;28;20028;-37
2023/06/04 09:42:54;;;;;;;3.63;0.60;;;;;;;21.73;30.82;102197.97;5075468;28;20480;-36
2023/06/04 09:45:31;;;;;;;2.67;0.98;;;;;;;21.65;30.89;102195.75;5073881;28;20035;-36
2023/06/04 09:47:57;;;;;;;1.42;0.63;;;;;;;21.42;30.60;102188.81;5074659;28;20051;-36
2023/06/04 09:50:27;;;;;;;1.17;0.60;;;;;;;21.44;30.58;102200.38;5074914;28;20477;-36
2023/06/04 09:52:53;;;;;;;1.50;0.70;;;;;;;21.63;31.16;102188.88;5073886;28;20115;-37
2023/06/04 09:55:20;;;;;;;2.75;0.70;;;;;;;21.83;31.21;102184.19;5074083;28;20362;-37
2023/06/04 09:57:52;;;;;;;1.20;0.60;;;;;;;21.91;29.93;102193.00;5072309;28;20039;-38
2023/06/04 10:00:23;;;;;;;2.78;0.65;;;;;;;21.76;28.99;102183.63;5074195;28;20048;-37
2023/06/04 10:02:58;;;;;;;1.92;0.80;;;;;;;21.93;28.47;102193.56;5073980;28;20050;-37
2023/06/04 10:05:25;;;;;;;1.27;0.45;;;;;;;21.86;29.10;102193.81;5072983;28;20058;-37
2023/06/04 10:07:52;;;;;;;1.13;0.70;;;;;;;22.00;28.82;102185.84;5072903;28;20028;-37
2023/06/04 10:10:23;;;;;;;1.60;0.60;;;;;;;22.18;29.70;102185.34;5073794;28;20489;-37
2023/06/04 10:13:05;;;;;;;1.65;0.68;;;;;;;22.05;28.83;102188.59;5070298;28;20043;-37
2023/06/04 10:15:34;;;;;;;3.28;0.80;;;;;;;22.04;29.97;102176.75;5072523;28;20032;-37
2023/06/04 10:18:00;;;;;;;2.15;0.75;;;;;;;22.36;30.01;102181.19;5074304;28;20028;-37
2023/06/04 10:20:26;;;;;;;1.63;0.60;;;;;;;22.58;29.03;102189.13;5071111;28;20487;-37
2023/06/04 10:22:51;;;;;;;0.85;0.50;;;;;;;22.63;28.88;102184.41;5065541;28;20021;-37
2023/06/04 10:25:18;;;;;;;3.65;0.90;;;;;;;22.71;28.91;102185.78;5068844;28;20079;-36
2023/06/04 10:27:43;;;;;;;1.15;0.60;;;;;;;22.43;27.97;102186.41;5071721;28;20107;-37
2023/06/04 10:30:09;;;;;;;3.13;0.77;;;;;;;22.36;28.63;102186.69;5073349;28;20159;-37
2023/06/04 10:32:35;;;;;;;1.35;0.60;;;;;;;22.62;29.11;102187.47;5073214;28;20384;-37
2023/06/04 10:35:06;;;;;;;2.72;0.60;;;;;;;22.68;29.08;102171.72;5072823;28;20024;-37
2023/06/04 10:37:32;;;;;;;2.13;0.70;;;;;;;22.94;28.05;102183.53;5074178;28;20034;-37
2023/06/04 10:39:58;;;;;;;4.30;0.70;;;;;;;22.87;28.56;102172.75;5073553;28;20108;-37
2023/06/04 10:42:25;;;;;;;1.30;0.70;;;;;;;22.91;27.14;102189.63;5073737;28;20024;-37
2023/06/04 10:44:52;;;;;;;1.30;0.60;;;;;;;22.62;27.50;102188.28;5074243;28;20028;-37
2023/06/04 10:47:25;;;;;;;4.85;0.60;;;;;;;22.71;28.09;102179.44;5073826;28;20024;-36
2023/06/04 10:49:51;;;;;;;2.47;0.57;;;;;;;23.06;28.11;102193.13;5073817;28;20060;-37
2023/06/04 10:52:17;;;;;;;0.90;0.60;;;;;;;23.02;27.97;102188.47;5073855;28;20484;-38
2023/06/04 10:54:43;;;;;;;2.33;0.70;;;;;;;22.87;27.73;102190.13;5073371;28;20056;-37
2023/06/04 10:57:12;;;;;;;1.50;0.60;;;;;;;23.09;29.56;102186.22;5073285;28;20028;-37
2023/06/04 10:59:37;;;;;;;3.35;0.50;;;;;;;23.17;27.53;102193.06;5073812;28;20385;-37
2023/06/04 11:02:08;;;;;;;2.78;0.90;;;;;;;23.17;27.98;102187.56;5074039;28;20028;-36
2023/06/04 11:04:36;;;;;;;2.25;0.60;;;;;;;23.29;27.89;102190.81;5074005;28;20113;-37
2023/06/04 11:07:10;;;;;;;2.38;0.68;;;;;;;23.41;28.23;102185.78;5073767;28;20029;-37
2023/06/04 11:09:53;;;;;;;2.55;0.70;;;;;;;23.30;28.14;102185.00;5073187;28;20037;-37
2023/06/04 11:12:19;;;;;;;1.45;0.60;;;;;;;23.52;28.76;102186.53;5073890;28;20028;-37
2023/06/04 11:14:57;;;;;;;3.22;0.75;;;;;;;23.67;28.71;102183.72;5073690;28;20111;-38
2023/06/04 11:17:23;;;;;;;4.45;1.23;;;;;;;23.80;28.71;102169.25;5073670;28;20032;-37
2023/06/04 11:19:48;;;;;;;1.83;0.70;;;;;;;24.15;27.60;102172.81;5072973;28;20391;-36
2023/06/04 11:22:14;;;;;;;2.28;0.75;;;;;;;23.97;27.11;102174.38;5073122;28;20043;-37
2023/06/04 11:24:40;;;;;;;7.22;1.30;;;;;;;24.21;28.78;102174.44;5073248;28;20016;-36
2023/06/04 11:27:05;;;;;;;1.40;0.70;;;;;;;24.20;27.92;102177.47;5074008;28;20057;-37
2023/06/04 11:29:30;;;;;;;3.20;0.60;;;;;;;24.02;27.59;102170.75;5073793;28;20029;-37
2023/06/04 11:31:57;;;;;;;3.00;0.85;;;;;;;23.94;27.09;102158.34;5073715;28;20033;-37
2023/06/04 11:34:26;;;;;;;1.00;0.63;;;;;;;24.23;27.91;102158.38;5073650;28;20446;-37